Time;durP1;ratioP1;P1;durP2;ratioP2;P2;SDS_P1;SDS_P2;PMS_P1;PMS_P2;Temp;Humidity;BMP_temperature;BMP_pressure;BME280_temperature;BME280_humidity;BME280_pressure;Samples;Min_cycle;Max_cycle;Signal;HPM_P1;HPM_P2
2023/02/14 07:57:14;;;;;;;6.83;3.57;;;;;;;;;;5132777;27;20625;-77
2023/02/14 07:59:40;;;;;;;5.23;3.43;;;;;;;;;;5113263;28;20777;-78
2023/02/14 08:19:14;;;;;;;7.57;4.57;;;3.60;99.90;;;;;;5133654;27;20276;-77
2023/02/14 08:21:40;;;;;;;8.80;4.67;;;3.90;99.90;;;;;;5132446;28;20710;-78
2023/02/14 08:24:06;;;;;;;10.00;5.37;;;4.60;99.90;;;;;;5132934;28;20272;-78
2023/02/14 08:26:31;;;;;;;8.70;5.20;;;5.30;99.90;;;;;;5133457;27;20571;-78
2023/02/14 08:28:57;;;;;;;10.23;5.93;;;6.00;99.90;;;;;;5131671;28;20178;-78
2023/02/14 08:31:29;;;;;;;8.60;5.63;;;6.40;99.90;;;;;;5132191;28;20285;-79
2023/02/14 08:33:55;;;;;;;7.47;5.17;;;7.00;99.90;;;;;;5133259;27;20224;-78
2023/02/14 08:36:21;;;;;;;7.83;4.57;;;7.10;99.90;;;;;;5133861;27;20517;-78
2023/02/14 08:38:47;;;;;;;8.53;4.83;;;7.00;99.90;;;;;;5133839;27;20191;-79
2023/02/14 08:41:14;;;;;;;6.23;4.57;;;6.90;99.90;;;;;;5132784;28;20553;-79
2023/02/14 08:43:41;;;;;;;5.63;4.40;;;6.90;99.90;;;;;;5135247;27;20221;-79
2023/02/14 08:46:06;;;;;;;13.13;6.73;;;6.60;99.90;;;;;;5135264;28;20186;-79
2023/02/14 08:48:33;;;;;;;8.93;5.13;;;6.80;99.90;;;;;;5136967;27;20246;-79
2023/02/14 08:51:05;;;;;;;8.40;5.63;;;7.20;99.90;;;;;;5136899;27;20163;-79
2023/02/14 08:53:30;;;;;;;8.87;5.27;;;7.50;99.90;;;;;;5135359;28;20190;-79
2023/02/14 08:56:00;;;;;;;7.17;4.30;;;7.60;99.90;;;;;;5136405;27;20549;-79
2023/02/14 08:58:26;;;;;;;4.93;4.07;;;7.40;99.90;;;;;;5135010;27;20198;-79
2023/02/14 09:00:52;;;;;;;4.70;3.73;;;7.20;99.90;;;;;;5135227;27;20172;-79
2023/02/14 09:03:17;;;;;;;5.20;3.60;;;7.00;99.90;;;;;;5133407;28;20166;-79
2023/02/14 09:05:43;;;;;;;6.17;3.70;;;7.20;99.90;;;;;;5135342;27;20191;-79
2023/02/14 09:08:08;;;;;;;6.83;3.90;;;7.30;99.90;;;;;;5134082;28;20176;-79
2023/02/14 09:10:35;;;;;;;8.90;3.70;;;7.70;99.90;;;;;;5133978;28;20180;-79
2023/02/14 09:13:00;;;;;;;5.23;3.70;;;8.20;99.90;;;;;;5134058;28;20177;-79
2023/02/14 09:15:26;;;;;;;5.30;3.57;;;8.40;99.90;;;;;;5135640;27;20197;-79
2023/02/14 09:17:52;;;;;;;6.33;3.60;;;8.60;99.90;;;;;;5135575;27;20214;-79
2023/02/14 09:20:18;;;;;;;4.93;3.17;;;8.80;99.90;;;;;;5136004;27;20176;-79
2023/02/14 09:22:43;;;;;;;8.17;4.93;;;8.90;99.90;;;;;;5134525;28;20537;-80
2023/02/14 09:25:09;;;;;;;5.80;3.90;;;9.20;99.90;;;;;;5134952;28;20191;-79
2023/02/14 09:27:36;;;;;;;5.87;4.33;;;9.40;99.90;;;;;;5134486;28;20183;-80
2023/02/14 09:30:02;;;;;;;6.07;4.00;;;9.70;99.90;;;;;;5125182;27;20203;-80
2023/02/14 09:32:28;;;;;;;6.97;4.23;;;10.00;99.90;;;;;;5122553;28;20166;-80
2023/02/14 09:34:54;;;;;;;8.83;5.10;;;10.10;99.90;;;;;;5122641;28;20188;-80
2023/02/14 09:37:19;;;;;;;8.37;5.00;;;10.40;99.90;;;;;;5123056;28;20190;-79
2023/02/14 09:39:45;;;;;;;5.20;4.00;;;10.60;99.20;;;;;;5123457;28;20568;-79
2023/02/14 09:42:29;;;;;;;9.60;3.77;;;10.60;99.50;;;;;;5119302;28;20179;-79
2023/02/14 09:44:59;;;;;;;7.80;3.77;;;10.90;97.90;;;;;;5119527;28;20199;-80
2023/02/14 09:47:49;;;;;;;9.17;4.03;;;11.20;96.60;;;;;;5118836;28;20226;-80
2023/02/14 09:50:33;;;;;;;8.57;4.17;;;11.30;97.10;;;;;;5120371;28;20148;-80
2023/02/14 09:53:23;;;;;;;5.23;3.53;;;11.20;93.30;;;;;;5118836;28;20648;-79
2023/02/14 09:55:53;;;;;;;8.47;4.20;;;11.40;94.20;;;;;;5118743;28;20219;-80
2023/02/14 09:58:25;;;;;;;5.83;3.73;;;11.70;95.10;;;;;;5120017;28;20572;-80
2023/02/14 10:01:09;;;;;;;7.43;3.60;;;11.60;94.00;;;;;;5120069;28;20159;-80
2023/02/14 10:03:57;;;;;;;6.13;4.07;;;11.80;94.60;;;;;;5119425;27;20232;-80
2023/02/14 10:06:51;;;;;;;4.90;3.37;;;12.10;91.70;;;;;;5118226;28;20656;-80
2023/02/14 10:09:41;;;;;;;7.73;3.90;;;12.60;92.10;;;;;;5119783;28;20172;-80
2023/02/14 10:12:15;;;;;;;8.13;4.00;;;12.90;91.20;;;;;;5119385;28;20238;-80
2023/02/14 10:14:42;;;;;;;7.77;4.07;;;13.10;90.90;;;;;;5117361;28;20188;-80
2023/02/14 10:17:14;;;;;;;6.40;4.13;;;13.50;87.80;;;;;;5117115;28;20203;-80
2023/02/14 10:19:45;;;;;;;21.60;5.93;;;13.70;90.70;;;;;;5119075;28;20216;-80
2023/02/14 10:22:17;;;;;;;11.43;4.77;;;14.10;95.20;;;;;;5117218;28;20250;-80
2023/02/14 10:24:54;;;;;;;7.17;4.90;;;14.10;95.10;;;;;;5117327;28;20284;-80
2023/02/14 10:27:29;;;;;;;9.53;4.83;;;13.90;95.30;;;;;;5118521;28;20158;-80
2023/02/14 10:29:55;;;;;;;9.13;4.57;;;13.70;95.80;;;;;;5117976;28;20616;-79
2023/02/14 10:32:34;;;;;;;5.47;4.30;;;13.50;96.40;;;;;;5117521;28;20236;-80
2023/02/14 10:35:21;;;;;;;11.73;4.73;;;13.60;97.30;;;;;;5116585;28;20584;-80
2023/02/14 10:37:55;;;;;;;7.40;4.50;;;13.60;97.90;;;;;;5116630;28;20694;-80
2023/02/14 10:40:35;;;;;;;8.20;4.17;;;13.70;97.10;;;;;;5115799;28;20164;-80
2023/02/14 10:43:45;;;;;;;6.00;4.40;;;13.50;95.30;;;;;;5115378;28;20163;-80
2023/02/14 10:46:31;;;;;;;5.70;4.00;;;13.30;96.60;;;;;;5114946;28;20195;-80
2023/02/14 10:49:12;;;;;;;5.93;4.23;;;13.40;96.00;;;;;;5115203;28;20694;-80
2023/02/14 10:51:54;;;;;;;5.77;3.77;;;13.20;95.50;;;;;;5114574;28;20199;-80
2023/02/14 10:54:24;;;;;;;5.80;3.87;;;12.80;95.30;;;;;;5115571;28;20220;-80
2023/02/14 10:57:02;;;;;;;4.53;3.87;;;13.00;95.40;;;;;;5115409;28;20163;-80
2023/02/14 10:59:54;;;;;;;4.80;3.30;;;13.10;95.70;;;;;;5117595;28;20174;-81
2023/02/14 11:02:25;;;;;;;5.23;3.50;;;13.70;94.50;;;;;;5117722;28;20168;-80
2023/02/14 11:04:51;;;;;;;4.10;2.97;;;13.90;92.80;;;;;;5118983;28;20184;-81
2023/02/14 11:07:19;;;;;;;8.90;3.37;;;13.50;91.30;;;;;;5118375;28;20617;-80
2023/02/14 11:09:45;;;;;;;7.67;3.47;;;13.50;91.20;;;;;;5117590;28;20196;-81
2023/02/14 11:12:11;;;;;;;7.30;3.33;;;13.80;92.50;;;;;;5116791;28;20176;-81
2023/02/14 11:14:40;;;;;;;10.33;3.70;;;14.00;91.80;;;;;;5117229;28;20192;-80
2023/02/14 11:17:28;;;;;;;5.47;3.60;;;14.30;89.70;;;;;;5116496;28;20255;-80
2023/02/14 11:20:05;;;;;;;4.37;3.27;;;14.90;90.00;;;;;;5118367;28;20159;-80
2023/02/14 11:22:33;;;;;;;3.43;3.00;;;15.30;88.30;;;;;;5117397;28;20161;-81
2023/02/14 11:25:04;;;;;;;3.60;3.13;;;14.60;87.50;;;;;;5117066;28;20195;-81
2023/02/14 11:27:30;;;;;;;3.47;3.10;;;14.70;88.50;;;;;;5116950;28;20183;-81
2023/02/14 11:29:57;;;;;;;3.70;3.30;;;15.00;90.90;;;;;;5117852;28;20533;-81
2023/02/14 11:32:28;;;;;;;3.80;3.40;;;15.40;90.90;;;;;;5117988;28;20538;-81
2023/02/14 11:35:05;;;;;;;4.47;3.00;;;15.40;89.90;;;;;;5118208;28;20274;-80
2023/02/14 11:37:38;;;;;;;6.90;3.60;;;15.60;89.10;;;;;;5117727;28;20194;-81
2023/02/14 11:40:05;;;;;;;4.33;3.67;;;15.60;90.40;;;;;;5118490;28;20164;-81
2023/02/14 11:42:44;;;;;;;4.37;3.97;;;15.70;90.40;;;;;;5117127;28;20259;-81
2023/02/14 11:45:29;;;;;;;5.07;4.57;;;15.40;90.30;;;;;;5117968;28;20187;-81
2023/02/14 11:48:16;;;;;;;5.97;4.00;;;14.50;91.60;;;;;;5117358;28;20645;-81
2023/02/14 11:50:44;;;;;;;4.80;4.17;;;14.90;91.50;;;;;;5119551;28;20240;-81
2023/02/14 11:53:20;;;;;;;6.37;4.70;;;14.80;91.10;;;;;;5117185;28;20193;-82
2023/02/14 11:55:52;;;;;;;5.53;4.00;;;15.00;90.60;;;;;;5118564;28;20197;-81
2023/02/14 11:58:36;;;;;;;4.13;3.43;;;15.20;87.80;;;;;;5121302;28;20198;-81
2023/02/14 12:01:02;;;;;;;4.50;3.90;;;15.70;87.40;;;;;;5119083;28;20733;-81
2023/02/14 12:03:43;;;;;;;4.80;4.27;;;15.90;86.40;;;;;;5118273;28;20176;-81
2023/02/14 12:06:10;;;;;;;5.77;3.30;;;16.10;86.80;;;;;;5116424;28;20563;-81
2023/02/14 12:08:40;;;;;;;4.37;3.80;;;16.70;82.80;;;;;;5118239;28;20177;-81
2023/02/14 12:11:22;;;;;;;4.40;3.50;;;17.20;81.20;;;;;;5120371;28;20187;-81
2023/02/14 12:13:57;;;;;;;6.80;2.90;;;17.20;78.90;;;;;;5120112;28;20171;-81
2023/02/14 12:16:41;;;;;;;7.77;3.30;;;17.60;77.60;;;;;;5120298;28;20177;-81
2023/02/14 12:19:16;;;;;;;5.13;3.70;;;17.60;73.50;;;;;;5121717;28;20263;-81
2023/02/14 12:21:41;;;;;;;29.53;5.07;;;17.20;74.90;;;;;;5120323;28;20182;-83
2023/02/14 12:24:22;;;;;;;24.87;4.50;;;17.30;72.90;;;;;;5122292;28;20219;-83
2023/02/14 12:27:16;;;;;;;5.53;3.50;;;17.50;74.20;;;;;;5121824;28;20195;-82
2023/02/14 12:29:47;;;;;;;3.80;3.43;;;17.60;71.50;;;;;;5122347;28;20161;-83
2023/02/14 12:32:25;;;;;;;3.40;3.10;;;17.90;71.80;;;;;;5121333;28;20195;-82
2023/02/14 12:35:15;;;;;;;8.10;4.00;;;18.20;71.20;;;;;;5122343;28;20687;-82
2023/02/14 12:38:03;;;;;;;6.27;3.40;;;18.50;70.30;;;;;;5121573;28;20216;-82
2023/02/14 12:40:35;;;;;;;5.27;3.10;;;18.70;67.20;;;;;;5120356;28;20152;-80
2023/02/14 12:43:24;;;;;;;6.53;3.23;;;18.70;65.90;;;;;;5120740;28;20254;-83
2023/02/14 12:45:53;;;;;;;18.37;4.07;;;18.50;62.10;;;;;;5119562;28;20538;-83
2023/02/14 12:48:55;;;;;;;4.80;2.83;;;18.40;64.10;;;;;;5121757;28;20176;-83
2023/02/14 12:51:26;;;;;;;10.43;3.53;;;18.30;61.20;;;;;;5120206;28;20203;-83
2023/02/14 12:54:06;;;;;;;3.67;3.27;;;18.50;65.30;;;;;;5121654;28;20202;-80
2023/02/14 12:56:43;;;;;;;5.27;2.93;;;18.70;62.80;;;;;;5119642;28;20255;-83
2023/02/14 12:59:22;;;;;;;3.50;3.20;;;19.00;61.30;;;;;;5120884;28;20191;-83
2023/02/14 13:02:24;;;;;;;4.80;3.40;;;18.50;62.70;;;;;;5120905;28;20181;-83
2023/02/14 13:05:11;;;;;;;9.67;4.23;;;19.00;61.90;;;;;;5119561;28;20207;-81
2023/02/14 13:07:38;;;;;;;7.70;3.27;;;19.70;58.80;;;;;;5122337;28;20163;-81
2023/02/14 13:10:17;;;;;;;18.30;3.80;;;19.70;57.90;;;;;;5123088;28;20168;-81
2023/02/14 13:12:54;;;;;;;12.63;3.67;;;19.70;57.70;;;;;;5121343;28;20222;-80
2023/02/14 13:15:22;;;;;;;5.70;3.97;;;19.90;56.90;;;;;;5122483;28;20267;-81
2023/02/14 13:17:55;;;;;;;6.63;3.70;;;19.90;56.80;;;;;;5120959;28;20206;-81
2023/02/14 13:20:58;;;;;;;11.27;4.13;;;20.00;57.20;;;;;;5119571;28;20169;-81
2023/02/14 13:23:28;;;;;;;4.27;3.50;;;20.40;56.50;;;;;;5121376;28;20242;-81
2023/02/14 13:26:10;;;;;;;93.27;8.70;;;20.60;55.20;;;;;;5120334;28;20173;-81
2023/02/14 13:28:37;;;;;;;13.33;4.40;;;20.40;55.60;;;;;;5118257;28;20179;-80
2023/02/14 13:31:03;;;;;;;8.40;5.63;;;20.10;56.00;;;;;;5117487;28;20212;-80
2023/02/14 13:33:37;;;;;;;5.63;4.50;;;20.20;56.30;;;;;;5117355;28;20191;-80
2023/02/14 13:36:11;;;;;;;6.33;4.60;;;20.20;56.30;;;;;;5116108;28;20228;-81
2023/02/14 13:38:44;;;;;;;8.10;4.73;;;20.80;56.00;;;;;;5115451;28;20270;-81
2023/02/14 13:41:13;;;;;;;6.53;4.50;;;20.00;56.70;;;;;;5122017;28;20180;-81
2023/02/14 13:43:45;;;;;;;4.50;4.10;;;19.50;57.60;;;;;;5123948;28;20205;-81
2023/02/14 13:46:12;;;;;;;4.63;4.20;;;17.40;60.40;;;;;;5121395;28;20613;-80
2023/02/14 13:48:38;;;;;;;12.97;4.83;;;15.70;64.10;;;;;;5120507;28;20176;-83
2023/02/14 13:51:07;;;;;;;10.00;4.70;;;14.60;67.40;;;;;;5121437;28;20179;-82
2023/02/14 13:53:46;;;;;;;8.33;4.83;;;14.40;69.40;;;;;;5122969;28;20294;-83
2023/02/14 13:56:12;;;;;;;7.13;4.67;;;15.90;67.30;;;;;;5121784;28;20160;-83
2023/02/14 13:58:48;;;;;;;7.70;4.60;;;17.50;63.70;;;;;;5121112;28;20292;-83
2023/02/14 14:01:34;;;;;;;7.23;4.53;;;18.90;61.20;;;;;;5123093;28;20175;-83
2023/02/14 14:04:11;;;;;;;10.43;4.90;;;19.80;58.40;;;;;;5120267;28;20192;-83
2023/02/14 14:07:12;;;;;;;7.97;4.40;;;19.30;58.20;;;;;;5119824;28;20542;-83
2023/02/14 14:09:41;;;;;;;4.47;4.07;;;19.50;58.20;;;;;;5120058;28;20539;-83
2023/02/14 14:12:25;;;;;;;5.03;4.43;;;19.90;58.00;;;;;;5119629;28;20177;-83
2023/02/14 14:15:06;;;;;;;6.40;4.90;;;20.20;57.60;;;;;;5120517;28;20199;-83
2023/02/14 14:17:39;;;;;;;11.10;5.20;;;20.20;57.20;;;;;;5118230;28;20259;-80
2023/02/14 14:20:20;;;;;;;38.93;7.23;;;19.50;57.90;;;;;;5118604;28;20259;-80
2023/02/14 14:22:57;;;;;;;10.60;5.10;;;16.90;61.80;;;;;;5120179;28;20174;-83
2023/02/14 14:25:30;;;;;;;6.60;4.87;;;14.70;67.40;;;;;;5119663;28;20340;-83
2023/02/14 14:27:56;;;;;;;8.33;5.97;;;13.20;72.80;;;;;;5122814;28;20222;-83
2023/02/14 14:30:28;;;;;;;6.23;5.40;;;12.30;77.40;;;;;;5120412;28;20247;-83
2023/02/14 14:32:53;;;;;;;6.63;5.33;;;11.80;80.00;;;;;;5122379;28;20561;-83
2023/02/14 14:35:22;;;;;;;15.17;5.60;;;11.40;82.80;;;;;;5118249;28;20276;-81
2023/02/14 14:37:57;;;;;;;9.30;6.33;;;11.00;84.70;;;;;;5119160;28;20207;-81
2023/02/14 14:40:24;;;;;;;8.07;5.33;;;10.80;88.60;;;;;;5117823;28;20166;-82
2023/02/14 14:42:51;;;;;;;7.87;5.40;;;10.70;90.20;;;;;;5119304;28;20177;-83
2023/02/14 14:45:28;;;;;;;7.77;5.20;;;10.60;91.60;;;;;;5119442;28;20668;-81
2023/02/14 14:47:57;;;;;;;9.90;5.83;;;10.40;92.20;;;;;;5119033;28;20569;-81
2023/02/14 14:50:32;;;;;;;7.47;5.60;;;10.40;93.90;;;;;;5118785;28;20379;-82
2023/02/14 14:53:05;;;;;;;11.70;6.33;;;10.30;94.70;;;;;;5118920;28;20259;-82
2023/02/14 14:55:34;;;;;;;14.80;7.40;;;10.20;95.70;;;;;;5128359;28;20222;-81
2023/02/14 14:58:24;;;;;;;10.77;6.63;;;10.10;98.20;;;;;;5123024;28;20204;-81
2023/02/14 15:00:51;;;;;;;9.80;7.43;;;10.00;99.90;;;;;;5118546;28;20171;-81
2023/02/14 15:03:21;;;;;;;9.80;7.40;;;9.90;99.90;;;;;;5117781;28;20187;-81
2023/02/14 15:05:50;;;;;;;12.13;7.77;;;9.80;99.90;;;;;;5118432;28;20200;-81
2023/02/14 15:08:22;;;;;;;9.93;7.73;;;9.50;99.90;;;;;;5117920;28;20191;-80
2023/02/14 15:11:09;;;;;;;12.93;7.70;;;9.40;99.90;;;;;;5117284;28;20186;-80
2023/02/14 15:13:52;;;;;;;11.67;8.83;;;9.30;99.90;;;;;;5116715;28;20191;-80
2023/02/14 15:16:24;;;;;;;14.50;8.30;;;9.20;99.90;;;;;;5118563;28;20160;-80
2023/02/14 15:18:52;;;;;;;10.43;8.03;;;9.20;99.90;;;;;;5119005;28;20214;-81
2023/02/14 15:21:18;;;;;;;13.30;8.33;;;9.20;99.90;;;;;;5118249;28;20172;-81
2023/02/14 15:23:44;;;;;;;12.80;8.17;;;9.00;99.90;;;;;;5118309;28;20179;-80
2023/02/14 15:26:17;;;;;;;13.30;8.53;;;8.90;99.90;;;;;;5117746;28;20579;-80
